createdAt,value
2017-11-06T18:56:50.648Z,64.02
2017-11-06T18:57:50.614Z,64.30
2017-11-06T18:59:43.384Z,63.45
2017-11-06T19:00:43.336Z,63.35
2017-11-06T19:02:36.184Z,62.69
2017-11-06T19:03:36.101Z,62.69
2017-11-06T19:05:28.944Z,62.50
2017-11-06T19:06:28.905Z,61.93
2017-11-06T19:08:21.732Z,61.65
2017-11-06T19:09:21.709Z,61.93
2017-11-06T19:11:14.520Z,62.31
2017-11-06T19:12:14.466Z,61.65
2017-11-06T19:14:07.670Z,62.50
2017-11-06T19:15:07.204Z,61.83
2017-11-06T19:17:00.048Z,61.14
2017-11-06T19:17:59.989Z,61.04
2017-11-06T19:19:52.831Z,60.57
2017-11-06T19:20:52.787Z,60.47
2017-11-06T19:22:45.583Z,60.00
2017-11-06T19:23:45.543Z,60.10
2017-11-06T19:25:38.381Z,59.52
2017-11-06T19:26:38.308Z,58.95
2017-11-06T19:28:31.628Z,57.24
2017-11-06T19:29:31.599Z,58.29
2017-11-06T19:30:31.540Z,57.91
2017-11-06T19:31:31.500Z,58.29
2017-11-06T19:32:31.465Z,58.10
2017-11-06T19:33:31.416Z,57.24
2017-11-06T19:34:31.389Z,56.58
2017-11-06T19:35:31.339Z,56.87
2017-11-06T19:36:31.299Z,57.62
2017-11-06T19:37:31.268Z,57.34
2017-11-06T19:38:31.210Z,57.53
2017-11-06T19:39:31.187Z,56.68
2017-11-06T19:40:31.139Z,56.96
2017-11-06T19:41:31.091Z,57.53
2017-11-06T19:42:31.049Z,57.91
2017-11-06T19:43:31.027Z,58.29
2017-11-06T19:44:30.968Z,59.43
2017-11-06T19:45:30.947Z,58.67
2017-11-06T19:46:30.897Z,58.39
2017-11-06T19:47:30.851Z,57.15
2017-11-06T19:48:30.808Z,57.15
2017-11-06T19:49:30.768Z,56.68
2017-11-06T19:50:30.731Z,56.49
2017-11-06T19:51:30.688Z,55.73
2017-11-06T19:52:30.653Z,56.58
2017-11-06T19:53:30.627Z,56.39
2017-11-06T19:54:30.597Z,55.16
2017-11-06T19:55:30.542Z,55.06
2017-11-06T19:56:30.504Z,54.97
2017-11-06T19:57:30.478Z,54.97
2017-11-06T19:58:30.415Z,54.49
2017-11-06T19:59:30.386Z,54.58
2017-11-06T20:00:30.335Z,53.73
2017-11-06T20:01:30.310Z,53.52
2017-11-06T20:02:30.247Z,53.89
2017-11-06T20:03:30.208Z,53.52
2017-11-06T20:04:30.180Z,53.26
2017-11-06T20:05:30.125Z,53.61
2017-11-06T20:06:30.089Z,53.07
2017-11-06T20:07:30.052Z,52.87
2017-11-06T20:08:30.003Z,52.56
2017-11-06T20:09:29.964Z,52.56
2017-11-06T20:10:29.927Z,52.28
2017-11-06T20:11:29.893Z,52.37
2017-11-06T20:12:29.871Z,52.37
2017-11-06T20:13:29.811Z,52.37
2017-11-06T20:14:29.766Z,51.74
2017-11-06T20:15:29.747Z,51.90
2017-11-06T20:16:29.694Z,52.56
2017-11-06T20:17:29.658Z,51.52
2017-11-06T20:18:29.600Z,51.72
2017-11-06T20:19:29.570Z,51.24
2017-11-06T20:20:29.520Z,51.14
2017-11-06T20:21:29.477Z,50.57
2017-11-06T20:22:29.438Z,50.67
2017-11-06T20:23:29.403Z,49.91
2017-11-06T20:24:29.365Z,50.20
2017-11-06T20:25:29.326Z,50.95
2017-11-06T20:26:29.276Z,50.67
2017-11-06T20:27:29.243Z,50.67
2017-11-06T20:28:29.200Z,50.10
2017-11-06T20:29:29.158Z,50.48
2017-11-06T20:30:29.142Z,49.43
2017-11-06T20:31:29.087Z,49.34
2017-11-06T20:32:29.038Z,48.39
2017-11-06T20:33:28.994Z,48.20
2017-11-06T20:34:28.959Z,48.11
2017-11-06T20:35:28.911Z,47.82
2017-11-06T20:36:28.877Z,47.82
2017-11-06T20:37:28.836Z,47.63
2017-11-06T20:38:28.796Z,47.16
2017-11-06T20:39:28.749Z,47.53
2017-11-06T20:40:28.712Z,47.44
2017-11-06T20:41:28.666Z,47.44
2017-11-06T20:42:28.628Z,47.44
2017-11-06T20:43:28.586Z,46.69
2017-11-06T20:44:28.547Z,46.49
2017-11-06T20:45:28.520Z,46.21
2017-11-06T20:46:28.492Z,46.97
2017-11-06T20:47:28.420Z,47.44
2017-11-06T20:48:28.449Z,47.53
2017-11-06T20:49:28.438Z,47.53
2017-11-06T20:50:28.322Z,46.88
2017-11-06T20:51:28.271Z,46.40
2017-11-06T20:52:28.231Z,46.30
2017-11-06T20:53:28.185Z,45.36
2017-11-06T20:54:28.147Z,44.69
2017-11-06T20:55:28.112Z,44.21
2017-11-06T20:56:28.087Z,44.02
2017-11-06T20:57:28.018Z,43.84
2017-11-06T20:58:27.991Z,44.21
2017-11-06T20:59:27.947Z,44.69
2017-11-06T21:00:27.896Z,45.36
2017-11-06T21:01:27.870Z,44.69
2017-11-06T21:02:27.818Z,43.84
2017-11-06T21:03:27.774Z,43.36
2017-11-06T21:04:27.740Z,42.41
2017-11-06T21:05:27.697Z,41.94
2017-11-06T21:06:27.690Z,41.66
2017-11-06T21:07:27.647Z,41.46
2017-11-06T21:08:27.581Z,41.18
2017-11-06T21:09:27.531Z,40.99
2017-11-06T21:10:27.502Z,40.33
2017-11-06T21:11:27.459Z,40.52
2017-11-06T21:12:27.415Z,40.80
2017-11-06T21:13:27.378Z,41.46
2017-11-06T21:14:27.336Z,42.03
2017-11-06T21:15:27.310Z,42.03
2017-11-06T21:16:27.256Z,41.75
2017-11-06T21:17:27.214Z,41.85
2017-11-06T21:18:27.166Z,41.46
2017-11-06T21:19:27.177Z,41.85
2017-11-06T21:20:27.111Z,40.89
2017-11-06T21:21:27.058Z,41.27
2017-11-06T21:22:27.015Z,40.89
2017-11-06T21:23:26.972Z,40.69
2017-11-06T21:24:26.937Z,39.85
2017-11-06T21:25:26.915Z,38.81
2017-11-06T21:26:26.849Z,38.33
2017-11-06T21:27:26.818Z,37.76
2017-11-06T21:28:26.775Z,38.24
2017-11-06T21:29:26.752Z,38.05
2017-11-06T21:30:26.695Z,38.14
2017-11-06T21:31:26.652Z,38.43
2017-11-06T21:32:26.644Z,39.00
2017-11-06T21:33:26.580Z,38.81
2017-11-06T21:34:26.555Z,38.62
2017-11-06T21:35:26.482Z,38.24
2017-11-06T21:36:26.520Z,38.33
2017-11-06T21:37:26.422Z,38.24
2017-11-06T21:38:26.371Z,38.05
2017-11-06T21:39:26.328Z,38.24
2017-11-06T21:40:26.294Z,39.09
2017-11-06T21:41:26.249Z,38.90
2017-11-06T21:42:26.210Z,39.09
2017-11-06T21:43:26.180Z,39.00
2017-11-06T21:44:26.151Z,39.66
2017-11-06T21:45:26.077Z,40.33
2017-11-06T21:46:26.064Z,40.99
2017-11-06T21:47:26.005Z,40.52
2017-11-06T21:48:25.973Z,40.23
2017-11-06T21:49:25.917Z,39.85
2017-11-06T21:50:25.891Z,39.00
2017-11-06T21:51:25.845Z,38.81
2017-11-06T21:52:25.797Z,39.37
2017-11-06T21:53:25.771Z,40.33
2017-11-06T21:54:25.716Z,39.18
2017-11-06T21:55:25.678Z,38.81
2017-11-06T21:56:25.638Z,39.00
2017-11-06T21:57:25.598Z,40.42
2017-11-06T21:58:25.564Z,40.89
2017-11-06T21:59:25.515Z,40.70
2017-11-06T22:00:25.475Z,40.52
2017-11-06T22:01:25.430Z,41.27
2017-11-06T22:02:25.402Z,40.89
2017-11-06T22:03:25.363Z,40.33
2017-11-06T22:04:25.322Z,40.42
2017-11-06T22:05:25.276Z,39.95
2017-11-06T22:06:25.234Z,39.37
2017-11-06T22:07:25.193Z,38.71
2017-11-06T22:08:25.159Z,38.81
2017-11-06T22:09:25.114Z,40.23
2017-11-06T22:10:25.074Z,40.14
2017-11-06T22:11:25.036Z,41.08
2017-11-06T22:12:25.002Z,42.89
2017-11-06T22:13:24.953Z,42.32
2017-11-06T22:14:24.921Z,41.66
2017-11-06T22:15:24.879Z,41.66
2017-11-06T22:16:24.833Z,41.73
2017-11-06T22:17:24.790Z,40.99
2017-11-06T22:18:24.752Z,40.23
2017-11-06T22:19:24.734Z,39.57
2017-11-06T22:20:24.693Z,39.00
2017-11-06T22:21:24.634Z,39.18
2017-11-06T22:22:24.605Z,39.47
2017-11-06T22:23:24.554Z,40.99
2017-11-06T22:24:24.510Z,40.52
2017-11-06T22:25:24.501Z,40.80
2017-11-06T22:26:24.443Z,41.54
2017-11-06T22:27:24.398Z,41.18
2017-11-06T22:28:24.382Z,40.70
2017-11-06T22:29:24.312Z,40.52
2017-11-06T22:30:24.268Z,40.33
2017-11-06T22:31:24.231Z,39.76
2017-11-06T22:32:24.190Z,40.14
2017-11-06T22:33:24.160Z,40.33
2017-11-06T22:34:24.116Z,41.08
2017-11-06T22:35:24.071Z,40.89
2017-11-06T22:36:24.027Z,42.11
2017-11-06T22:37:24.001Z,42.30
2017-11-06T22:38:23.947Z,41.06
2017-11-06T22:39:23.923Z,40.50
2017-11-06T22:40:23.941Z,39.76
2017-11-06T22:41:23.828Z,39.00
2017-11-06T22:42:23.794Z,39.66
2017-11-06T22:43:23.744Z,40.14
2017-11-06T22:44:23.715Z,40.33
2017-11-06T22:45:23.663Z,40.33
2017-11-06T22:46:23.629Z,41.18
2017-11-06T22:47:23.632Z,41.37
2017-11-06T22:48:23.545Z,41.37
2017-11-06T22:49:23.523Z,42.32
2017-11-06T22:50:23.466Z,42.79
2017-11-06T22:51:23.436Z,42.60
2017-11-06T22:52:23.393Z,41.66
2017-11-06T22:53:23.360Z,41.37
2017-11-06T22:54:23.303Z,41.56
2017-11-06T22:55:23.263Z,42.22
2017-11-06T22:56:23.250Z,44.40
2017-11-06T22:57:23.188Z,45.36
2017-11-06T22:58:23.157Z,46.21
2017-11-06T22:59:23.101Z,44.88
2017-11-06T23:00:23.062Z,44.79
2017-11-06T23:01:23.044Z,44.60
2017-11-06T23:02:22.984Z,44.60
2017-11-06T23:03:22.940Z,45.26
2017-11-06T23:04:22.903Z,46.56
2017-11-06T23:05:22.871Z,45.24
2017-11-06T23:06:22.821Z,44.29
2017-11-06T23:07:22.782Z,42.96
2017-11-06T23:08:22.744Z,42.32
2017-11-06T23:09:22.701Z,42.13
2017-11-06T23:10:22.662Z,41.37
2017-11-06T23:11:22.619Z,42.22
2017-11-06T23:12:22.593Z,42.60
2017-11-06T23:13:22.544Z,43.93
2017-11-06T23:14:22.513Z,43.46
2017-11-06T23:15:22.469Z,43.27
2017-11-06T23:16:22.428Z,42.89
2017-11-06T23:17:22.406Z,42.70
2017-11-06T23:18:22.363Z,42.51
2017-11-06T23:19:22.296Z,44.40
2017-11-06T23:20:22.332Z,46.47
2017-11-06T23:21:22.224Z,45.52
2017-11-06T23:22:22.188Z,44.67
2017-11-06T23:23:22.150Z,43.43
2017-11-06T23:24:22.114Z,42.22
2017-11-06T23:25:22.060Z,41.82
2017-11-06T23:26:22.018Z,42.11
2017-11-06T23:27:21.992Z,41.75
2017-11-06T23:28:21.941Z,41.75
2017-11-06T23:29:21.915Z,41.08
2017-11-06T23:30:21.859Z,41.08
2017-11-06T23:31:21.821Z,41.46
2017-11-06T23:32:21.772Z,41.94
2017-11-06T23:33:21.740Z,42.32
2017-11-06T23:34:21.701Z,42.98
2017-11-06T23:35:21.653Z,44.02
2017-11-06T23:36:21.658Z,43.65
2017-11-06T23:37:21.581Z,43.55
2017-11-06T23:38:21.532Z,43.46
2017-11-06T23:39:21.491Z,44.88
2017-11-06T23:40:21.448Z,46.66
2017-11-06T23:41:21.415Z,45.71
2017-11-06T23:42:21.379Z,44.38
2017-11-06T23:43:21.332Z,43.82
2017-11-06T23:44:21.295Z,42.96
2017-11-06T23:45:21.266Z,41.94
2017-11-06T23:46:21.217Z,41.18
2017-11-06T23:47:21.238Z,41.46
2017-11-06T23:48:21.131Z,41.37
2017-11-06T23:49:21.092Z,42.32
2017-11-06T23:50:21.050Z,42.77
2017-11-06T23:51:21.008Z,43.17
2017-11-06T23:52:20.967Z,43.72
2017-11-06T23:53:20.945Z,43.27
2017-11-06T23:54:20.901Z,43.05
2017-11-06T23:55:20.855Z,43.43
2017-11-06T23:56:20.808Z,42.58
2017-11-06T23:57:20.767Z,41.82
2017-11-06T23:58:20.736Z,41.63
2017-11-06T23:59:20.694Z,41.35
